sensor_id;sensor_type;location;lat;lon;timestamp;pressure;altitude;pressure_sealevel;temperature;humidity
73952;BME280;62304;47.662;18.324;2023-03-19T00:00:39;100557.44;;;7.01;57.76
73952;BME280;62304;47.662;18.324;2023-03-19T00:03:42;100567.91;;;7.08;57.91
73952;BME280;62304;47.662;18.324;2023-03-19T00:06:46;100545.28;;;7.14;57.70
73952;BME280;62304;47.662;18.324;2023-03-19T00:09:48;100560.03;;;7.18;57.56
73952;BME280;62304;47.662;18.324;2023-03-19T00:12:51;100558.84;;;7.07;57.97
73952;BME280;62304;47.662;18.324;2023-03-19T00:15:54;100559.97;;;7.06;58.07
73952;BME280;62304;47.662;18.324;2023-03-19T00:18:57;100552.84;;;7.05;58.25
73952;BME280;62304;47.662;18.324;2023-03-19T00:22:00;100568.81;;;7.00;58.62
73952;BME280;62304;47.662;18.324;2023-03-19T00:25:03;100565.25;;;6.99;58.62
73952;BME280;62304;47.662;18.324;2023-03-19T00:28:06;100559.63;;;6.96;58.54
73952;BME280;62304;47.662;18.324;2023-03-19T00:31:15;100550.75;;;6.90;58.80
73952;BME280;62304;47.662;18.324;2023-03-19T00:34:18;100561.75;;;6.90;58.97
73952;BME280;62304;47.662;18.324;2023-03-19T00:37:23;100553.84;;;6.89;58.86
73952;BME280;62304;47.662;18.324;2023-03-19T00:40:26;100560.03;;;6.86;59.37
73952;BME280;62304;47.662;18.324;2023-03-19T00:43:29;100558.44;;;6.85;59.13
73952;BME280;62304;47.662;18.324;2023-03-19T00:46:33;100565.31;;;6.79;59.45
73952;BME280;62304;47.662;18.324;2023-03-19T00:49:35;100563.59;;;6.74;59.39
73952;BME280;62304;47.662;18.324;2023-03-19T00:52:39;100568.59;;;6.72;59.56
73952;BME280;62304;47.662;18.324;2023-03-19T00:55:42;100553.75;;;6.65;59.85
73952;BME280;62304;47.662;18.324;2023-03-19T00:58:45;100558.47;;;6.64;59.86
73952;BME280;62304;47.662;18.324;2023-03-19T01:01:49;100548.00;;;6.58;60.07
73952;BME280;62304;47.662;18.324;2023-03-19T01:04:53;100552.69;;;6.57;60.16
73952;BME280;62304;47.662;18.324;2023-03-19T01:07:56;100550.19;;;6.52;60.37
73952;BME280;62304;47.662;18.324;2023-03-19T01:11:10;100544.31;;;6.54;60.45
73952;BME280;62304;47.662;18.324;2023-03-19T01:14:15;100546.28;;;6.53;60.41
73952;BME280;62304;47.662;18.324;2023-03-19T01:17:19;100545.66;;;6.48;60.78
73952;BME280;62304;47.662;18.324;2023-03-19T01:20:22;100543.03;;;6.51;60.49
73952;BME280;62304;47.662;18.324;2023-03-19T01:23:26;100544.06;;;6.47;60.53
73952;BME280;62304;47.662;18.324;2023-03-19T01:26:29;100548.03;;;6.37;60.68
73952;BME280;62304;47.662;18.324;2023-03-19T01:29:33;100542.03;;;6.35;60.77
73952;BME280;62304;47.662;18.324;2023-03-19T01:32:37;100549.37;;;6.31;60.90
73952;BME280;62304;47.662;18.324;2023-03-19T01:35:40;100546.16;;;6.29;61.28
73952;BME280;62304;47.662;18.324;2023-03-19T01:38:44;100541.59;;;6.33;60.95
73952;BME280;62304;47.662;18.324;2023-03-19T01:41:48;100536.53;;;6.35;60.96
73952;BME280;62304;47.662;18.324;2023-03-19T01:44:55;100537.69;;;6.34;60.94
73952;BME280;62304;47.662;18.324;2023-03-19T01:47:59;100536.75;;;6.30;60.96
73952;BME280;62304;47.662;18.324;2023-03-19T01:51:03;100518.13;;;6.27;61.20
73952;BME280;62304;47.662;18.324;2023-03-19T01:54:14;100519.53;;;6.33;61.18
73952;BME280;62304;47.662;18.324;2023-03-19T01:57:19;100519.66;;;6.37;60.75
73952;BME280;62304;47.662;18.324;2023-03-19T02:00:27;100511.34;;;6.25;61.09
73952;BME280;62304;47.662;18.324;2023-03-19T02:03:33;100518.47;;;6.26;61.35
73952;BME280;62304;47.662;18.324;2023-03-19T02:06:36;100510.22;;;6.26;60.85
73952;BME280;62304;47.662;18.324;2023-03-19T02:09:41;100511.59;;;6.32;60.69
73952;BME280;62304;47.662;18.324;2023-03-19T02:12:44;100514.72;;;6.30;60.91
73952;BME280;62304;47.662;18.324;2023-03-19T02:15:49;100509.44;;;6.25;60.86
73952;BME280;62304;47.662;18.324;2023-03-19T02:18:52;100511.03;;;6.26;61.23
73952;BME280;62304;47.662;18.324;2023-03-19T02:21:58;100503.72;;;6.30;61.01
73952;BME280;62304;47.662;18.324;2023-03-19T02:25:08;100504.03;;;6.29;60.64
73952;BME280;62304;47.662;18.324;2023-03-19T02:28:15;100504.38;;;6.27;60.78
73952;BME280;62304;47.662;18.324;2023-03-19T02:31:21;100506.50;;;6.22;61.29
73952;BME280;62304;47.662;18.324;2023-03-19T02:37:29;100502.50;;;6.19;60.84
73952;BME280;62304;47.662;18.324;2023-03-19T02:40:38;100505.41;;;6.23;60.70
73952;BME280;62304;47.662;18.324;2023-03-19T02:43:43;100502.03;;;6.17;60.55
73952;BME280;62304;47.662;18.324;2023-03-19T02:46:45;100504.53;;;6.10;60.87
73952;BME280;62304;47.662;18.324;2023-03-19T02:49:49;100501.56;;;6.15;60.82
73952;BME280;62304;47.662;18.324;2023-03-19T02:52:52;100506.50;;;6.22;60.49
73952;BME280;62304;47.662;18.324;2023-03-19T02:55:55;100500.00;;;6.26;60.12
73952;BME280;62304;47.662;18.324;2023-03-19T02:58:58;100499.41;;;6.21;60.33
73952;BME280;62304;47.662;18.324;2023-03-19T03:02:01;100499.41;;;6.21;60.19
73952;BME280;62304;47.662;18.324;2023-03-19T03:05:05;100505.66;;;6.30;59.89
73952;BME280;62304;47.662;18.324;2023-03-19T03:08:08;100511.53;;;6.40;59.26
73952;BME280;62304;47.662;18.324;2023-03-19T03:11:12;100512.69;;;6.39;59.24
73952;BME280;62304;47.662;18.324;2023-03-19T03:14:15;100509.81;;;6.36;59.30
73952;BME280;62304;47.662;18.324;2023-03-19T03:17:18;100499.53;;;6.24;59.53
73952;BME280;62304;47.662;18.324;2023-03-19T03:20:22;100506.78;;;6.29;59.46
73952;BME280;62304;47.662;18.324;2023-03-19T03:23:24;100503.75;;;6.22;59.65
73952;BME280;62304;47.662;18.324;2023-03-19T03:26:28;100517.28;;;6.15;59.86
73952;BME280;62304;47.662;18.324;2023-03-19T03:29:31;100510.97;;;6.14;59.70
73952;BME280;62304;47.662;18.324;2023-03-19T03:32:35;100496.72;;;6.12;59.81
73952;BME280;62304;47.662;18.324;2023-03-19T03:35:39;100504.97;;;6.12;59.88
73952;BME280;62304;47.662;18.324;2023-03-19T03:38:42;100495.13;;;6.11;59.76
73952;BME280;62304;47.662;18.324;2023-03-19T03:41:46;100494.25;;;5.99;60.12
73952;BME280;62304;47.662;18.324;2023-03-19T03:44:50;100488.28;;;5.97;60.40
73952;BME280;62304;47.662;18.324;2023-03-19T03:47:53;100494.59;;;5.97;60.13
73952;BME280;62304;47.662;18.324;2023-03-19T03:50:57;100497.56;;;5.92;60.40
73952;BME280;62304;47.662;18.324;2023-03-19T03:54:00;100485.59;;;5.88;60.38
73952;BME280;62304;47.662;18.324;2023-03-19T03:57:04;100501.16;;;5.84;60.44
73952;BME280;62304;47.662;18.324;2023-03-19T04:00:08;100491.63;;;5.82;60.63
73952;BME280;62304;47.662;18.324;2023-03-19T04:03:14;100495.53;;;5.81;60.60
73952;BME280;62304;47.662;18.324;2023-03-19T04:06:20;100502.00;;;5.76;60.71
73952;BME280;62304;47.662;18.324;2023-03-19T04:09:24;100505.91;;;5.75;60.92
73952;BME280;62304;47.662;18.324;2023-03-19T04:12:28;100502.84;;;5.68;61.05
73952;BME280;62304;47.662;18.324;2023-03-19T04:15:31;100504.81;;;5.68;60.96
73952;BME280;62304;47.662;18.324;2023-03-19T04:18:35;100505.16;;;5.66;61.04
73952;BME280;62304;47.662;18.324;2023-03-19T04:21:39;100505.16;;;5.66;61.09
73952;BME280;62304;47.662;18.324;2023-03-19T04:24:42;100513.72;;;5.65;61.08
73952;BME280;62304;47.662;18.324;2023-03-19T04:27:44;100501.13;;;5.64;61.07
73952;BME280;62304;47.662;18.324;2023-03-19T04:30:48;100510.84;;;5.61;61.14
73952;BME280;62304;47.662;18.324;2023-03-19T04:33:51;100517.16;;;5.62;60.99
73952;BME280;62304;47.662;18.324;2023-03-19T04:36:54;100514.25;;;5.58;61.14
73952;BME280;62304;47.662;18.324;2023-03-19T04:39:57;100520.56;;;5.59;61.17
73952;BME280;62304;47.662;18.324;2023-03-19T04:43:01;100532.37;;;5.59;61.02
73952;BME280;62304;47.662;18.324;2023-03-19T04:46:05;100534.56;;;5.45;61.50
73952;BME280;62304;47.662;18.324;2023-03-19T04:49:10;100530.19;;;5.44;61.82
73952;BME280;62304;47.662;18.324;2023-03-19T04:52:14;100539.59;;;5.43;61.68
73952;BME280;62304;47.662;18.324;2023-03-19T04:55:17;100541.72;;;5.38;61.77
73952;BME280;62304;47.662;18.324;2023-03-19T04:58:21;100544.94;;;5.40;61.88
73952;BME280;62304;47.662;18.324;2023-03-19T05:01:25;100545.75;;;5.40;61.81
73952;BME280;62304;47.662;18.324;2023-03-19T05:04:30;100536.88;;;5.35;61.89
73952;BME280;62304;47.662;18.324;2023-03-19T05:07:34;100545.97;;;5.27;62.24
73952;BME280;62304;47.662;18.324;2023-03-19T05:10:38;100536.56;;;5.28;62.45
73952;BME280;62304;47.662;18.324;2023-03-19T05:13:42;100545.16;;;5.26;62.49
73952;BME280;62304;47.662;18.324;2023-03-19T05:16:45;100548.38;;;5.28;62.29
73952;BME280;62304;47.662;18.324;2023-03-19T05:19:48;100548.31;;;5.45;61.96
73952;BME280;62304;47.662;18.324;2023-03-19T05:22:52;100539.81;;;5.59;61.19
73952;BME280;62304;47.662;18.324;2023-03-19T05:25:58;100537.63;;;5.81;60.36
73952;BME280;62304;47.662;18.324;2023-03-19T05:29:04;100545.37;;;6.08;59.60
73952;BME280;62304;47.662;18.324;2023-03-19T05:32:07;100530.78;;;6.08;59.42
73952;BME280;62304;47.662;18.324;2023-03-19T05:35:12;100529.63;;;6.09;59.40
73952;BME280;62304;47.662;18.324;2023-03-19T05:38:16;100533.25;;;6.42;58.33
73952;BME280;62304;47.662;18.324;2023-03-19T05:41:20;100541.28;;;6.79;57.63
73952;BME280;62304;47.662;18.324;2023-03-19T05:44:25;100531.72;;;6.65;57.64
73952;BME280;62304;47.662;18.324;2023-03-19T05:47:29;100539.53;;;7.07;56.68
73952;BME280;62304;47.662;18.324;2023-03-19T05:50:33;100544.97;;;7.28;56.00
73952;BME280;62304;47.662;18.324;2023-03-19T05:53:37;100550.16;;;7.41;56.41
73952;BME280;62304;47.662;18.324;2023-03-19T05:56:43;100557.28;;;7.30;55.95
73952;BME280;62304;47.662;18.324;2023-03-19T05:59:48;100560.03;;;7.30;56.92
73952;BME280;62304;47.662;18.324;2023-03-19T06:02:52;100560.13;;;7.22;56.56
73952;BME280;62304;47.662;18.324;2023-03-19T06:05:57;100565.66;;;7.58;55.50
73952;BME280;62304;47.662;18.324;2023-03-19T06:09:04;100564.41;;;7.79;54.41
73952;BME280;62304;47.662;18.324;2023-03-19T06:12:08;100561.63;;;7.67;54.15
73952;BME280;62304;47.662;18.324;2023-03-19T06:15:13;100555.84;;;8.20;53.26
73952;BME280;62304;47.662;18.324;2023-03-19T06:18:19;100563.22;;;8.56;52.70
73952;BME280;62304;47.662;18.324;2023-03-19T06:21:23;100552.88;;;8.96;52.10
73952;BME280;62304;47.662;18.324;2023-03-19T06:24:31;100547.56;;;9.18;51.27
73952;BME280;62304;47.662;18.324;2023-03-19T06:27:36;100546.22;;;9.12;50.63
73952;BME280;62304;47.662;18.324;2023-03-19T06:30:39;100542.31;;;9.44;49.61
73952;BME280;62304;47.662;18.324;2023-03-19T06:33:44;100538.66;;;9.40;49.46
73952;BME280;62304;47.662;18.324;2023-03-19T06:36:47;100540.81;;;8.88;50.53
73952;BME280;62304;47.662;18.324;2023-03-19T06:39:50;100545.66;;;8.91;51.21
73952;BME280;62304;47.662;18.324;2023-03-19T06:42:56;100540.19;;;8.79;51.67
73952;BME280;62304;47.662;18.324;2023-03-19T06:46:00;100547.50;;;9.15;50.07
73952;BME280;62304;47.662;18.324;2023-03-19T06:49:03;100551.00;;;9.93;47.72
73952;BME280;62304;47.662;18.324;2023-03-19T06:52:06;100547.56;;;10.49;47.03
73952;BME280;62304;47.662;18.324;2023-03-19T06:55:10;100546.53;;;11.18;45.34
73952;BME280;62304;47.662;18.324;2023-03-19T06:58:13;100552.56;;;11.68;44.59
73952;BME280;62304;47.662;18.324;2023-03-19T07:01:17;100565.25;;;11.92;44.65
73952;BME280;62304;47.662;18.324;2023-03-19T07:04:20;100555.84;;;11.51;44.40
73952;BME280;62304;47.662;18.324;2023-03-19T07:07:24;100553.13;;;11.32;44.36
73952;BME280;62304;47.662;18.324;2023-03-19T07:10:27;100552.13;;;11.44;42.86
73952;BME280;62304;47.662;18.324;2023-03-19T07:13:30;100559.69;;;11.43;43.60
73952;BME280;62304;47.662;18.324;2023-03-19T07:16:33;100562.53;;;12.21;41.63
73952;BME280;62304;47.662;18.324;2023-03-19T07:19:36;100547.06;;;13.63;39.25
73952;BME280;62304;47.662;18.324;2023-03-19T07:22:39;100547.72;;;13.93;38.49
73952;BME280;62304;47.662;18.324;2023-03-19T07:25:43;100542.16;;;14.61;39.34
73952;BME280;62304;47.662;18.324;2023-03-19T07:28:47;100541.13;;;15.07;38.02
73952;BME280;62304;47.662;18.324;2023-03-19T07:31:51;100546.41;;;15.44;38.19
73952;BME280;62304;47.662;18.324;2023-03-19T07:34:54;100544.78;;;15.57;37.62
73952;BME280;62304;47.662;18.324;2023-03-19T07:37:58;100553.59;;;15.62;35.77
73952;BME280;62304;47.662;18.324;2023-03-19T07:41:01;100537.59;;;15.98;35.69
73952;BME280;62304;47.662;18.324;2023-03-19T07:44:06;100538.00;;;16.10;35.82
73952;BME280;62304;47.662;18.324;2023-03-19T07:47:09;100543.97;;;16.12;34.05
73952;BME280;62304;47.662;18.324;2023-03-19T07:50:30;100527.31;;;16.91;34.20
73952;BME280;62304;47.662;18.324;2023-03-19T07:53:34;100532.72;;;17.26;33.23
73952;BME280;62304;47.662;18.324;2023-03-19T07:56:38;100544.25;;;16.63;34.25
73952;BME280;62304;47.662;18.324;2023-03-19T07:59:41;100543.47;;;16.63;34.51
73952;BME280;62304;47.662;18.324;2023-03-19T08:02:45;100541.28;;;17.02;33.89
73952;BME280;62304;47.662;18.324;2023-03-19T08:05:49;100538.19;;;16.75;32.80
73952;BME280;62304;47.662;18.324;2023-03-19T08:08:53;100533.75;;;16.81;33.48
73952;BME280;62304;47.662;18.324;2023-03-19T08:11:56;100541.81;;;16.72;34.04
73952;BME280;62304;47.662;18.324;2023-03-19T08:14:59;100528.47;;;17.01;34.06
73952;BME280;62304;47.662;18.324;2023-03-19T08:18:03;100530.09;;;16.98;32.92
73952;BME280;62304;47.662;18.324;2023-03-19T08:21:06;100543.91;;;15.04;35.00
73952;BME280;62304;47.662;18.324;2023-03-19T08:24:10;100530.69;;;16.51;33.51
73952;BME280;62304;47.662;18.324;2023-03-19T08:27:13;100521.31;;;17.58;31.49
73952;BME280;62304;47.662;18.324;2023-03-19T08:30:16;100524.81;;;18.13;31.32
73952;BME280;62304;47.662;18.324;2023-03-19T08:33:19;100517.97;;;18.14;31.15
73952;BME280;62304;47.662;18.324;2023-03-19T08:36:22;100521.00;;;17.45;30.75
73952;BME280;62304;47.662;18.324;2023-03-19T08:39:25;100515.81;;;17.37;31.25
73952;BME280;62304;47.662;18.324;2023-03-19T08:42:29;100523.97;;;17.17;31.76
73952;BME280;62304;47.662;18.324;2023-03-19T08:45:32;100527.25;;;15.60;34.95
73952;BME280;62304;47.662;18.324;2023-03-19T08:48:36;100524.63;;;17.35;32.05
73952;BME280;62304;47.662;18.324;2023-03-19T08:51:42;100519.63;;;17.67;28.98
73952;BME280;62304;47.662;18.324;2023-03-19T08:54:45;100522.25;;;16.65;30.93
73952;BME280;62304;47.662;18.324;2023-03-19T08:57:48;100522.38;;;17.16;30.25
73952;BME280;62304;47.662;18.324;2023-03-19T09:00:52;100516.28;;;16.56;30.58
73952;BME280;62304;47.662;18.324;2023-03-19T09:03:55;100520.97;;;16.80;31.03
73952;BME280;62304;47.662;18.324;2023-03-19T09:06:58;100512.44;;;17.01;30.68
73952;BME280;62304;47.662;18.324;2023-03-19T09:10:00;100505.00;;;17.35;29.93
73952;BME280;62304;47.662;18.324;2023-03-19T09:13:04;100499.13;;;17.19;29.67
73952;BME280;62304;47.662;18.324;2023-03-19T09:16:07;100491.09;;;17.76;29.31
73952;BME280;62304;47.662;18.324;2023-03-19T09:19:11;100499.19;;;18.07;29.30
73952;BME280;62304;47.662;18.324;2023-03-19T09:22:14;100501.53;;;18.12;28.72
73952;BME280;62304;47.662;18.324;2023-03-19T09:25:17;100504.75;;;18.11;28.47
73952;BME280;62304;47.662;18.324;2023-03-19T09:28:20;100508.41;;;17.67;28.92
73952;BME280;62304;47.662;18.324;2023-03-19T09:31:23;100504.34;;;18.12;28.80
73952;BME280;62304;47.662;18.324;2023-03-19T09:34:30;100511.06;;;17.85;28.46
73952;BME280;62304;47.662;18.324;2023-03-19T09:37:35;100507.72;;;17.53;29.45
73952;BME280;62304;47.662;18.324;2023-03-19T09:40:40;100504.28;;;18.86;28.09
73952;BME280;62304;47.662;18.324;2023-03-19T09:43:56;100510.72;;;18.16;28.19
73952;BME280;62304;47.662;18.324;2023-03-19T09:50:30;100518.37;;;17.17;30.05
73952;BME280;62304;47.662;18.324;2023-03-19T09:56:55;100515.03;;;17.87;29.74
73952;BME280;62304;47.662;18.324;2023-03-19T09:59:59;100514.13;;;16.92;30.81
73952;BME280;62304;47.662;18.324;2023-03-19T10:06:36;100513.16;;;16.23;32.27
73952;BME280;62304;47.662;18.324;2023-03-19T10:16:20;100500.34;;;16.25;32.34
73952;BME280;62304;47.662;18.324;2023-03-19T10:19:35;100499.22;;;15.98;33.15
73952;BME280;62304;47.662;18.324;2023-03-19T10:26:20;100509.56;;;17.15;30.84
73952;BME280;62304;47.662;18.324;2023-03-19T10:29:24;100504.91;;;17.53;30.26
73952;BME280;62304;47.662;18.324;2023-03-19T10:32:45;100501.25;;;18.00;29.71
73952;BME280;62304;47.662;18.324;2023-03-19T10:35:58;100500.31;;;17.22;30.84
73952;BME280;62304;47.662;18.324;2023-03-19T10:39:05;100506.97;;;18.30;29.19
73952;BME280;62304;47.662;18.324;2023-03-19T10:42:18;100497.00;;;18.25;29.32
73952;BME280;62304;47.662;18.324;2023-03-19T10:48:29;100485.63;;;17.62;30.22
73952;BME280;62304;47.662;18.324;2023-03-19T10:51:34;100485.16;;;18.44;28.65
73952;BME280;62304;47.662;18.324;2023-03-19T10:54:42;100498.91;;;18.35;29.21
73952;BME280;62304;47.662;18.324;2023-03-19T10:57:49;100496.12;;;18.32;28.54
73952;BME280;62304;47.662;18.324;2023-03-19T11:01:07;100493.19;;;18.05;29.13
73952;BME280;62304;47.662;18.324;2023-03-19T11:04:16;100484.44;;;18.70;28.23
73952;BME280;62304;47.662;18.324;2023-03-19T11:07:21;100492.62;;;18.58;28.57
73952;BME280;62304;47.662;18.324;2023-03-19T11:10:29;100478.97;;;17.86;29.50
73952;BME280;62304;47.662;18.324;2023-03-19T11:13:34;100475.47;;;18.49;28.41
73952;BME280;62304;47.662;18.324;2023-03-19T11:19:57;100456.44;;;18.30;28.72
73952;BME280;62304;47.662;18.324;2023-03-19T11:23:03;100450.97;;;18.79;28.79
73952;BME280;62304;47.662;18.324;2023-03-19T11:26:17;100443.47;;;19.26;27.50
73952;BME280;62304;47.662;18.324;2023-03-19T11:29:22;100446.53;;;19.08;27.92
73952;BME280;62304;47.662;18.324;2023-03-19T11:39:20;100428.09;;;19.34;27.44
73952;BME280;62304;47.662;18.324;2023-03-19T11:42:58;100427.75;;;18.75;27.70
73952;BME280;62304;47.662;18.324;2023-03-19T11:49:20;100422.63;;;18.70;28.20
73952;BME280;62304;47.662;18.324;2023-03-19T11:59:42;100406.44;;;16.93;30.65
73952;BME280;62304;47.662;18.324;2023-03-19T12:13:33;100402.22;;;17.18;30.12
73952;BME280;62304;47.662;18.324;2023-03-19T12:26:06;100361.63;;;18.67;28.50
73952;BME280;62304;47.662;18.324;2023-03-19T12:33:26;100365.50;;;17.87;28.37
73952;BME280;62304;47.662;18.324;2023-03-19T12:36:44;100363.22;;;18.95;27.78
73952;BME280;62304;47.662;18.324;2023-03-19T12:47:14;100363.75;;;18.60;27.39
73952;BME280;62304;47.662;18.324;2023-03-19T12:50:21;100360.94;;;19.78;26.64
73952;BME280;62304;47.662;18.324;2023-03-19T12:53:36;100350.81;;;19.61;26.16
73952;BME280;62304;47.662;18.324;2023-03-19T12:57:11;100341.22;;;19.97;26.02
73952;BME280;62304;47.662;18.324;2023-03-19T13:00:33;100338.41;;;19.78;26.55
73952;BME280;62304;47.662;18.324;2023-03-19T13:07:23;100333.69;;;18.83;27.68
73952;BME280;62304;47.662;18.324;2023-03-19T13:10:30;100332.84;;;18.86;27.63
73952;BME280;62304;47.662;18.324;2023-03-19T13:19:53;100331.16;;;18.92;28.25
73952;BME280;62304;47.662;18.324;2023-03-19T13:23:03;100323.03;;;18.15;28.33
73952;BME280;62304;47.662;18.324;2023-03-19T13:26:12;100315.22;;;16.88;29.73
73952;BME280;62304;47.662;18.324;2023-03-19T13:29:20;100317.81;;;16.62;30.47
73952;BME280;62304;47.662;18.324;2023-03-19T13:36:01;100316.62;;;15.94;31.94
73952;BME280;62304;47.662;18.324;2023-03-19T13:39:17;100328.22;;;15.82;32.72
73952;BME280;62304;47.662;18.324;2023-03-19T13:42:34;100321.41;;;15.90;33.00
73952;BME280;62304;47.662;18.324;2023-03-19T13:45:39;100308.53;;;16.14;32.39
73952;BME280;62304;47.662;18.324;2023-03-19T13:51:48;100321.72;;;16.75;31.37
73952;BME280;62304;47.662;18.324;2023-03-19T13:54:53;100317.12;;;16.47;31.65
73952;BME280;62304;47.662;18.324;2023-03-19T14:04:35;100318.75;;;16.45;31.86
73952;BME280;62304;47.662;18.324;2023-03-19T14:07:41;100320.03;;;16.23;32.48
73952;BME280;62304;47.662;18.324;2023-03-19T14:10:48;100319.69;;;16.17;32.67
73952;BME280;62304;47.662;18.324;2023-03-19T14:13:52;100319.25;;;16.22;32.44
73952;BME280;62304;47.662;18.324;2023-03-19T14:16:58;100319.91;;;16.47;31.80
73952;BME280;62304;47.662;18.324;2023-03-19T14:23:27;100321.22;;;16.25;32.33
73952;BME280;62304;47.662;18.324;2023-03-19T14:26:43;100317.28;;;16.19;32.67
73952;BME280;62304;47.662;18.324;2023-03-19T14:29:47;100315.56;;;16.43;32.19
73952;BME280;62304;47.662;18.324;2023-03-19T14:32:54;100326.34;;;16.37;32.48
73952;BME280;62304;47.662;18.324;2023-03-19T14:36:01;100315.47;;;16.53;32.12
73952;BME280;62304;47.662;18.324;2023-03-19T14:39:15;100314.94;;;16.72;31.91
73952;BME280;62304;47.662;18.324;2023-03-19T14:42:30;100310.12;;;17.20;31.32
73952;BME280;62304;47.662;18.324;2023-03-19T14:46:00;100313.12;;;17.43;30.99
73952;BME280;62304;47.662;18.324;2023-03-19T14:52:39;100304.09;;;16.78;31.76
73952;BME280;62304;47.662;18.324;2023-03-19T14:55:49;100313.84;;;16.63;32.00
73952;BME280;62304;47.662;18.324;2023-03-19T14:58:55;100314.91;;;16.14;32.97
73952;BME280;62304;47.662;18.324;2023-03-19T15:01:59;100308.09;;;16.12;32.99
73952;BME280;62304;47.662;18.324;2023-03-19T15:05:08;100319.41;;;15.94;33.21
73952;BME280;62304;47.662;18.324;2023-03-19T15:08:19;100315.22;;;15.23;34.69
73952;BME280;62304;47.662;18.324;2023-03-19T15:11:37;100318.03;;;15.09;34.87
73952;BME280;62304;47.662;18.324;2023-03-19T15:15:18;100302.06;;;15.13;34.85
73952;BME280;62304;47.662;18.324;2023-03-19T15:18:25;100306.84;;;14.88;35.58
73952;BME280;62304;47.662;18.324;2023-03-19T15:21:29;100310.88;;;14.98;34.98
73952;BME280;62304;47.662;18.324;2023-03-19T15:24:33;100316.03;;;14.92;35.44
73952;BME280;62304;47.662;18.324;2023-03-19T15:27:39;100314.44;;;14.91;35.79
73952;BME280;62304;47.662;18.324;2023-03-19T15:30:44;100328.00;;;15.03;35.95
73952;BME280;62304;47.662;18.324;2023-03-19T15:34:23;100327.19;;;14.99;36.02
73952;BME280;62304;47.662;18.324;2023-03-19T15:37:29;100326.78;;;15.18;35.43
73952;BME280;62304;47.662;18.324;2023-03-19T15:40:35;100331.97;;;15.27;35.22
73952;BME280;62304;47.662;18.324;2023-03-19T15:43:40;100322.00;;;15.29;35.64
73952;BME280;62304;47.662;18.324;2023-03-19T15:46:45;100308.81;;;15.26;35.41
73952;BME280;62304;47.662;18.324;2023-03-19T15:49:54;100315.59;;;15.29;35.38
73952;BME280;62304;47.662;18.324;2023-03-19T15:53:09;100304.87;;;15.06;35.69
73952;BME280;62304;47.662;18.324;2023-03-19T15:56:15;100308.03;;;15.19;35.81
73952;BME280;62304;47.662;18.324;2023-03-19T15:59:22;100309.25;;;15.07;35.78
73952;BME280;62304;47.662;18.324;2023-03-19T16:02:31;100308.06;;;14.98;36.18
73952;BME280;62304;47.662;18.324;2023-03-19T16:05:38;100317.25;;;14.88;36.86
73952;BME280;62304;47.662;18.324;2023-03-19T16:08:49;100309.66;;;14.74;36.69
73952;BME280;62304;47.662;18.324;2023-03-19T16:11:54;100314.06;;;14.65;36.98
73952;BME280;62304;47.662;18.324;2023-03-19T16:14:57;100308.44;;;14.54;36.99
73952;BME280;62304;47.662;18.324;2023-03-19T16:18:21;100316.81;;;14.47;37.32
73952;BME280;62304;47.662;18.324;2023-03-19T16:24:39;100317.97;;;14.25;37.70
73952;BME280;62304;47.662;18.324;2023-03-19T16:27:45;100315.94;;;14.19;37.76
73952;BME280;62304;47.662;18.324;2023-03-19T16:30:52;100321.50;;;14.05;38.39
73952;BME280;62304;47.662;18.324;2023-03-19T16:33:56;100325.44;;;14.00;38.75
73952;BME280;62304;47.662;18.324;2023-03-19T16:37:01;100333.41;;;13.91;39.12
73952;BME280;62304;47.662;18.324;2023-03-19T16:43:21;100330.16;;;13.75;39.62
73952;BME280;62304;47.662;18.324;2023-03-19T16:46:27;100326.13;;;13.66;40.15
73952;BME280;62304;47.662;18.324;2023-03-19T16:49:32;100328.44;;;13.53;40.69
73952;BME280;62304;47.662;18.324;2023-03-19T16:52:36;100337.94;;;13.45;41.24
73952;BME280;62304;47.662;18.324;2023-03-19T16:55:42;100331.50;;;13.34;41.26
73952;BME280;62304;47.662;18.324;2023-03-19T16:58:47;100336.25;;;13.27;41.52
73952;BME280;62304;47.662;18.324;2023-03-19T17:01:52;100338.66;;;13.32;41.18
73952;BME280;62304;47.662;18.324;2023-03-19T17:04:56;100340.22;;;13.29;41.16
73952;BME280;62304;47.662;18.324;2023-03-19T17:08:03;100335.84;;;13.28;40.68
73952;BME280;62304;47.662;18.324;2023-03-19T17:11:15;100343.41;;;13.28;40.94
73952;BME280;62304;47.662;18.324;2023-03-19T17:14:23;100336.66;;;13.29;40.83
73952;BME280;62304;47.662;18.324;2023-03-19T17:17:28;100336.28;;;13.34;41.25
73952;BME280;62304;47.662;18.324;2023-03-19T17:20:37;100346.63;;;13.33;41.02
73952;BME280;62304;47.662;18.324;2023-03-19T17:23:42;100349.84;;;13.39;40.98
73952;BME280;62304;47.662;18.324;2023-03-19T17:26:48;100347.09;;;13.42;41.39
73952;BME280;62304;47.662;18.324;2023-03-19T17:29:53;100341.09;;;13.40;41.26
73952;BME280;62304;47.662;18.324;2023-03-19T17:32:58;100339.56;;;13.46;41.18
73952;BME280;62304;47.662;18.324;2023-03-19T17:36:03;100339.63;;;13.60;41.40
73952;BME280;62304;47.662;18.324;2023-03-19T17:39:10;100344.78;;;13.58;41.29
73952;BME280;62304;47.662;18.324;2023-03-19T17:42:20;100338.84;;;13.60;41.10
73952;BME280;62304;47.662;18.324;2023-03-19T17:45:28;100329.66;;;13.59;41.76
73952;BME280;62304;47.662;18.324;2023-03-19T17:48:34;100330.72;;;13.37;42.33
73952;BME280;62304;47.662;18.324;2023-03-19T17:51:39;100338.84;;;13.63;41.96
73952;BME280;62304;47.662;18.324;2023-03-19T17:54:44;100335.59;;;13.51;41.62
73952;BME280;62304;47.662;18.324;2023-03-19T17:57:49;100331.97;;;13.47;42.95
73952;BME280;62304;47.662;18.324;2023-03-19T18:00:59;100337.53;;;13.40;43.73